Time;durP1;ratioP1;P1;durP2;ratioP2;P2;SDS_P1;SDS_P2;PMS_P1;PMS_P2;Temp;Humidity;BMP_temperature;BMP_pressure;BME280_temperature;BME280_humidity;BME280_pressure;Samples;Min_cycle;Max_cycle;Signal;HPM_P1;HPM_P2
2022/09/15 00:02:23;;;;;;;10.90;4.75;;;;;;;12.64;100.00;97935.03;5173559;27;20164;-49
2022/09/15 00:04:49;;;;;;;11.48;4.70;;;;;;;12.39;100.00;97930.53;5173306;27;20050;-50
2022/09/15 00:07:15;;;;;;;7.72;4.32;;;;;;;12.51;100.00;97909.22;5173274;27;20058;-49
2022/09/15 00:09:41;;;;;;;4.97;3.95;;;;;;;12.53;100.00;97907.63;5173179;27;20050;-52
2022/09/15 00:12:08;;;;;;;8.85;3.95;;;;;;;12.47;100.00;97921.03;5173174;27;20135;-48
2022/09/15 00:14:34;;;;;;;10.13;4.65;;;;;;;12.44;100.00;97932.84;5173049;27;20520;-52
2022/09/15 00:17:00;;;;;;;9.05;4.60;;;;;;;12.33;100.00;97939.63;5173144;27;20053;-51
2022/09/15 00:19:27;;;;;;;9.02;4.30;;;;;;;12.24;100.00;97937.34;5172351;27;20073;-53
2022/09/15 00:21:53;;;;;;;12.60;4.85;;;;;;;12.08;100.00;97932.38;5173275;27;20057;-51
2022/09/15 00:24:19;;;;;;;7.75;4.78;;;;;;;12.02;100.00;97923.78;5172893;27;20050;-53
2022/09/15 00:26:45;;;;;;;11.35;5.18;;;;;;;11.92;100.00;97921.13;5173006;27;20060;-51
2022/09/15 00:29:12;;;;;;;8.68;5.15;;;;;;;11.75;100.00;97906.31;5172798;27;20050;-52
2022/09/15 00:31:38;;;;;;;12.95;6.05;;;;;;;11.67;100.00;97880.88;5172803;27;20050;-51
2022/09/15 00:34:06;;;;;;;12.07;6.28;;;;;;;11.68;100.00;97882.44;5172746;27;20050;-50
2022/09/15 00:36:32;;;;;;;10.50;5.90;;;;;;;11.66;100.00;97879.31;5172967;27;20042;-50
2022/09/15 00:38:59;;;;;;;11.18;6.75;;;;;;;11.54;100.00;97869.59;5172679;27;20050;-50
2022/09/15 00:41:25;;;;;;;12.65;5.82;;;;;;;11.53;100.00;97867.25;5172685;27;20433;-49
2022/09/15 00:43:54;;;;;;;13.63;6.95;;;;;;;11.47;100.00;97869.63;5172918;27;20503;-49
2022/09/15 00:46:23;;;;;;;13.05;6.47;;;;;;;11.43;100.00;97868.88;5172510;27;20050;-48
2022/09/15 00:48:57;;;;;;;12.52;6.57;;;;;;;11.25;100.00;97863.50;5172817;27;20110;-48
2022/09/15 00:51:36;;;;;;;15.55;7.20;;;;;;;11.26;100.00;97847.81;5172732;27;20042;-48
2022/09/15 00:54:05;;;;;;;10.95;7.22;;;;;;;11.21;100.00;97848.25;5172511;27;20057;-49
2022/09/15 00:56:34;;;;;;;18.08;8.18;;;;;;;11.18;100.00;97849.81;5172368;27;20065;-49
2022/09/15 00:59:04;;;;;;;15.13;10.00;;;;;;;11.05;100.00;97829.53;5172393;27;20061;-48
2022/09/15 01:01:32;;;;;;;15.35;9.77;;;;;;;11.01;100.00;97820.53;5172609;27;20426;-50
2022/09/15 01:03:59;;;;;;;23.02;11.95;;;;;;;11.14;100.00;97807.16;5172728;27;20042;-48
2022/09/15 01:06:30;;;;;;;21.50;11.50;;;;;;;11.15;100.00;97819.66;5172412;27;20053;-48
2022/09/15 01:09:03;;;;;;;20.42;10.68;;;;;;;11.07;100.00;97814.22;5171984;27;20045;-48
2022/09/15 01:11:30;;;;;;;25.27;12.77;;;;;;;11.04;100.00;97808.78;5172598;27;20482;-49
2022/09/15 01:13:57;;;;;;;22.30;11.23;;;;;;;11.06;100.00;97812.69;5172072;27;20046;-48
2022/09/15 01:16:32;;;;;;;20.80;11.95;;;;;;;11.07;100.00;97808.75;5172277;27;20085;-48
2022/09/15 01:19:32;;;;;;;25.65;12.27;;;;;;;11.05;100.00;97813.84;5172019;27;20129;-49
2022/09/15 01:22:12;;;;;;;24.17;12.15;;;;;;;11.01;100.00;97813.09;5172125;27;20493;-48
2022/09/15 01:24:45;;;;;;;20.45;11.00;;;;;;;10.95;100.00;97800.19;5172581;27;20050;-48
2022/09/15 01:27:27;;;;;;;28.20;11.93;;;;;;;10.79;100.00;97792.44;5171900;27;20047;-48
2022/09/15 01:30:02;;;;;;;21.02;11.73;;;;;;;10.79;100.00;97773.25;5172274;27;20050;-48
2022/09/15 01:35:32;;;;;;;23.38;12.50;;;;;;;10.94;100.00;97777.47;5175801;27;20053;-49
2022/09/15 01:38:05;;;;;;;25.63;11.35;;;;;;;10.98;100.00;97777.47;5175941;27;20501;-48
2022/09/15 01:40:38;;;;;;;21.10;12.00;;;;;;;10.91;100.00;97783.00;5175392;27;20137;-48
2022/09/15 01:43:05;;;;;;;28.90;12.15;;;;;;;10.95;100.00;97789.22;5175972;27;20548;-51
2022/09/15 01:45:34;;;;;;;19.92;11.88;;;;;;;10.94;100.00;97793.16;5175576;27;20149;-49
2022/09/15 01:48:04;;;;;;;25.40;11.75;;;;;;;10.73;100.00;97799.50;5175362;27;20050;-50
2022/09/15 01:50:35;;;;;;;25.33;12.50;;;;;;;10.86;100.00;97775.94;5175522;27;20057;-48
2022/09/15 01:53:08;;;;;;;27.55;12.50;;;;;;;10.91;100.00;97780.25;5175303;27;20073;-48
2022/09/15 01:55:40;;;;;;;24.80;13.83;;;;;;;10.88;100.00;97781.06;5175455;27;20097;-48
2022/09/15 01:58:07;;;;;;;26.85;12.95;;;;;;;10.90;100.00;97784.19;5175396;27;20057;-48
2022/09/15 02:00:39;;;;;;;24.38;12.65;;;;;;;10.82;100.00;97792.41;5175291;27;20050;-49
2022/09/15 02:03:16;;;;;;;18.70;11.40;;;;;;;10.77;100.00;97795.59;5175199;27;20046;-48
2022/09/15 02:05:47;;;;;;;23.70;12.70;;;;;;;10.77;100.00;97798.34;5175067;27;20050;-48
2022/09/15 02:08:24;;;;;;;25.50;12.43;;;;;;;10.77;100.00;97798.34;5174935;27;20053;-51
2022/09/15 02:10:59;;;;;;;25.13;12.65;;;;;;;10.70;100.00;97805.81;5175374;27;20579;-48
2022/09/15 02:13:37;;;;;;;24.88;12.45;;;;;;;10.71;100.00;97801.88;5175249;27;20081;-49
2022/09/15 02:16:12;;;;;;;19.38;11.45;;;;;;;10.68;100.00;97808.16;5175030;27;20099;-49
2022/09/15 02:18:44;;;;;;;28.90;14.60;;;;;;;10.54;100.00;97804.31;5174849;27;20509;-48
2022/09/15 02:21:15;;;;;;;24.42;13.32;;;;;;;10.54;100.00;97798.06;5174907;27;20046;-52
2022/09/15 02:23:46;;;;;;;21.88;12.35;;;;;;;10.57;100.00;97794.50;5174978;27;20053;-50
2022/09/15 02:26:18;;;;;;;21.10;13.77;;;;;;;10.50;100.00;97795.31;5174826;27;20050;-49
2022/09/15 02:28:47;;;;;;;24.33;13.38;;;;;;;10.48;100.00;97786.72;5174676;27;20137;-51
2022/09/15 02:31:16;;;;;;;28.52;13.93;;;;;;;10.40;100.00;97776.19;5174899;27;20161;-50
2022/09/15 02:33:47;;;;;;;31.50;14.73;;;;;;;10.39;100.00;97771.88;5174769;27;20073;-52
2022/09/15 02:36:18;;;;;;;28.05;14.00;;;;;;;10.26;100.00;97768.78;5174945;27;20573;-51
2022/09/15 02:38:49;;;;;;;29.40;14.88;;;;;;;10.15;100.00;97760.56;5174618;27;20102;-49
2022/09/15 02:41:16;;;;;;;32.53;17.02;;;;;;;10.28;100.00;97750.78;5174402;27;20058;-50
2022/09/15 02:43:44;;;;;;;42.13;19.73;;;;;;;10.26;100.00;97755.09;5174593;27;20069;-49
2022/09/15 02:46:11;;;;;;;35.20;16.33;;;;;;;10.07;100.00;97748.88;5174947;27;20077;-50
2022/09/15 02:48:38;;;;;;;38.85;19.27;;;;;;;10.09;100.00;97735.53;5174438;27;20054;-51
2022/09/15 02:51:04;;;;;;;44.00;18.02;;;;;;;10.13;100.00;97730.88;5174647;27;20066;-52
2022/09/15 02:53:30;;;;;;;48.45;20.05;;;;;;;10.22;100.00;97735.91;5174498;27;20049;-49
2022/09/15 02:55:57;;;;;;;37.85;18.65;;;;;;;10.03;100.00;97736.34;5174463;27;20566;-50
2022/09/15 02:58:23;;;;;;;40.97;19.73;;;;;;;10.18;100.00;97735.13;5174257;27;20058;-50
2022/09/15 03:00:49;;;;;;;40.67;18.95;;;;;;;10.19;100.00;97739.44;5174456;27;20054;-48
2022/09/15 03:03:17;;;;;;;49.22;18.98;;;;;;;10.18;100.00;97740.63;5174523;27;20054;-48
2022/09/15 03:05:44;;;;;;;36.22;17.25;;;;;;;10.17;100.00;97747.28;5174066;27;20073;-48
2022/09/15 03:08:10;;;;;;;38.35;16.60;;;;;;;10.12;100.00;97748.44;5174424;27;20054;-48
2022/09/15 03:10:36;;;;;;;23.23;14.18;;;;;;;10.06;100.00;97746.50;5174158;27;20050;-48
2022/09/15 03:13:03;;;;;;;25.45;14.02;;;;;;;10.04;100.00;97755.13;5174653;27;20069;-48
2022/09/15 03:15:29;;;;;;;31.25;13.55;;;;;;;9.93;100.00;97748.91;5174236;27;20046;-48
2022/09/15 03:17:55;;;;;;;22.90;14.88;;;;;;;10.00;100.00;97748.91;5173939;27;20046;-49
2022/09/15 03:20:23;;;;;;;28.15;13.75;;;;;;;9.96;100.00;97737.16;5174130;27;20057;-49
2022/09/15 03:22:50;;;;;;;27.13;14.27;;;;;;;9.94;100.00;97746.97;5174043;27;20050;-50
2022/09/15 03:25:17;;;;;;;20.77;12.52;;;;;;;9.87;100.00;97739.53;5173883;27;20050;-48
2022/09/15 03:27:44;;;;;;;24.13;13.38;;;;;;;9.87;100.00;97737.59;5173955;27;20251;-49
2022/09/15 03:30:12;;;;;;;24.70;13.90;;;;;;;9.89;100.00;97729.75;5174071;27;20046;-48
2022/09/15 03:32:38;;;;;;;31.33;13.13;;;;;;;9.90;100.00;97736.78;5173632;27;20046;-48
2022/09/15 03:35:05;;;;;;;20.48;13.05;;;;;;;9.90;100.00;97736.78;5174030;27;20051;-51
2022/09/15 03:37:32;;;;;;;21.90;13.57;;;;;;;9.90;100.00;97746.97;5173750;27;20050;-48
2022/09/15 03:39:59;;;;;;;21.77;12.80;;;;;;;9.83;100.00;97755.16;5173963;27;20595;-49
2022/09/15 03:42:25;;;;;;;20.77;12.40;;;;;;;9.82;100.00;97746.19;5173573;27;20050;-48
2022/09/15 03:44:51;;;;;;;20.60;12.52;;;;;;;9.80;100.00;97739.56;5173722;27;20503;-49
2022/09/15 03:47:18;;;;;;;21.58;12.30;;;;;;;9.81;100.00;97744.63;5173398;27;20042;-49
2022/09/15 03:49:44;;;;;;;25.63;11.88;;;;;;;9.79;100.00;97749.72;5173547;27;20058;-48
2022/09/15 03:52:11;;;;;;;20.30;11.85;;;;;;;9.69;100.00;97752.47;5173440;27;20077;-49
2022/09/15 03:54:37;;;;;;;16.58;11.40;;;;;;;9.71;100.00;97755.59;5172384;27;20053;-48
2022/09/15 03:57:04;;;;;;;21.67;11.80;;;;;;;9.71;100.00;97764.59;5173615;27;20052;-50
2022/09/15 03:59:30;;;;;;;19.08;11.95;;;;;;;9.75;100.00;97764.59;5173392;27;20477;-48
2022/09/15 04:01:56;;;;;;;17.45;11.32;;;;;;;9.78;100.00;97763.78;5173658;27;20420;-49
2022/09/15 04:04:23;;;;;;;26.30;11.80;;;;;;;9.85;100.00;97759.09;5173152;27;20046;-52
2022/09/15 04:06:49;;;;;;;23.30;11.32;;;;;;;9.89;100.00;97759.84;5173182;27;20078;-51
2022/09/15 04:09:15;;;;;;;20.05;10.43;;;;;;;9.94;100.00;97741.47;5172958;27;20050;-50
2022/09/15 04:11:41;;;;;;;21.42;11.50;;;;;;;10.02;100.00;97752.00;5173403;27;20042;-49
2022/09/15 04:14:08;;;;;;;19.40;9.95;;;;;;;9.92;100.00;97757.50;5173008;27;20050;-47
2022/09/15 04:16:34;;;;;;;18.58;10.45;;;;;;;10.06;100.00;97760.22;5172988;27;20503;-50
2022/09/15 04:19:01;;;;;;;14.80;9.68;;;;;;;10.08;100.00;97768.81;5173279;27;20133;-48
2022/09/15 04:21:27;;;;;;;24.27;11.50;;;;;;;10.22;100.00;97768.00;5172918;27;20050;-52
2022/09/15 04:23:53;;;;;;;19.58;10.32;;;;;;;10.46;100.00;97774.56;5172961;27;20054;-50
2022/09/15 04:26:23;;;;;;;15.75;9.55;;;;;;;10.79;100.00;97781.47;5172750;27;20050;-48
2022/09/15 04:28:49;;;;;;;17.17;9.65;;;;;;;11.55;100.00;97799.78;5173182;27;20053;-52
2022/09/15 04:31:17;;;;;;;11.95;7.65;;;;;;;12.11;100.00;97856.63;5172779;27;20045;-51
2022/09/15 04:33:44;;;;;;;11.98;7.28;;;;;;;12.75;100.00;97904.66;5173249;27;20046;-52
2022/09/15 04:36:12;;;;;;;9.50;7.45;;;;;;;13.02;100.00;97981.75;5172727;27;20042;-52
2022/09/15 04:38:39;;;;;;;10.35;7.07;;;;;;;13.31;100.00;98042.81;5173188;27;20046;-52
2022/09/15 04:41:06;;;;;;;16.27;7.18;;;;;;;13.39;100.00;98049.78;5172723;27;20046;-51
2022/09/15 04:43:33;;;;;;;11.50;7.15;;;;;;;13.39;100.00;98039.56;5172700;27;20072;-51
2022/09/15 04:45:59;;;;;;;9.98;6.85;;;;;;;13.12;100.00;98036.66;5172592;27;20060;-53
2022/09/15 04:48:26;;;;;;;9.63;7.53;;;;;;;12.89;100.00;98042.78;5172708;27;20497;-51
2022/09/15 04:50:53;;;;;;;13.25;9.23;;;;;;;12.76;100.00;98049.97;5172500;27;20046;-49
2022/09/15 04:53:19;;;;;;;13.00;7.90;;;;;;;12.51;100.00;98052.94;5172489;27;20098;-52
2022/09/15 04:55:46;;;;;;;10.57;7.28;;;;;;;13.09;100.00;98058.72;5172663;27;20050;-52
2022/09/15 04:58:12;;;;;;;12.38;7.72;;;;;;;13.60;100.00;98049.53;5172288;27;20133;-50
2022/09/15 05:00:42;;;;;;;19.27;9.80;;;;;;;14.05;100.00;98043.81;5172485;27;20046;-50
2022/09/15 05:03:08;;;;;;;11.82;7.72;;;;;;;14.22;100.00;98000.66;5172203;27;20042;-53
2022/09/15 05:05:35;;;;;;;15.02;7.93;;;;;;;14.16;100.00;97962.97;5172405;27;20155;-49
2022/09/15 05:08:03;;;;;;;17.88;8.02;;;;;;;14.25;100.00;97949.44;5171918;27;20053;-50
2022/09/15 05:10:29;;;;;;;15.05;8.90;;;;;;;14.06;100.00;97937.94;5172134;27;20432;-49
2022/09/15 05:12:55;;;;;;;14.65;8.68;;;;;;;13.91;100.00;97955.09;5172172;27;20556;-50
2022/09/15 05:15:21;;;;;;;14.02;8.43;;;;;;;13.84;100.00;97981.53;5172071;27;20046;-55
2022/09/15 05:17:48;;;;;;;17.42;9.60;;;;;;;13.94;100.00;97988.09;5172014;27;20531;-54
2022/09/15 05:20:14;;;;;;;19.10;9.68;;;;;;;14.41;100.00;97985.41;5172152;27;20437;-59
2022/09/15 05:22:41;;;;;;;19.33;10.07;;;;;;;14.59;100.00;97963.88;5172269;27;20099;-50
2022/09/15 05:25:09;;;;;;;15.55;9.85;;;;;;;14.90;100.00;97903.00;5172162;27;20049;-52
2022/09/15 05:27:35;;;;;;;15.70;8.77;;;;;;;15.32;100.00;97816.94;5172448;27;20451;-53
2022/09/15 05:30:01;;;;;;;22.10;9.32;;;;;;;16.05;100.00;97668.31;5172034;27;20053;-53
2022/09/15 05:32:27;;;;;;;26.58;10.23;;;;;;;16.44;100.00;97479.88;5172367;27;20053;-52
2022/09/15 05:34:54;;;;;;;19.02;12.15;;;;;;;17.26;100.00;97240.13;5172184;27;20133;-54
2022/09/15 05:37:20;;;;;;;22.50;16.05;;;;;;;17.50;100.00;97105.41;5172334;27;20045;-53
2022/09/15 05:39:47;;;;;;;15.65;10.38;;;;;;;17.40;100.00;96963.38;5172197;27;20065;-54
2022/09/15 05:42:13;;;;;;;20.83;13.00;;;;;;;17.51;100.00;96982.28;5171988;27;20363;-53
2022/09/15 05:44:40;;;;;;;21.27;12.70;;;;;;;17.28;100.00;96972.63;5172123;27;20493;-54
2022/09/15 05:47:06;;;;;;;23.83;15.13;;;;;;;17.20;100.00;97042.63;5171547;27;20149;-50
2022/09/15 05:49:32;;;;;;;23.40;11.05;;;;;;;17.24;100.00;97121.53;5171765;27;20137;-55
2022/09/15 05:51:59;;;;;;;20.42;12.38;;;;;;;17.23;100.00;97102.59;5171549;27;20094;-56
2022/09/15 05:54:26;;;;;;;24.52;14.60;;;;;;;17.67;100.00;97061.53;5171956;27;20050;-53
2022/09/15 05:56:53;;;;;;;24.67;14.23;;;;;;;17.84;100.00;97009.34;5171953;27;20114;-56
2022/09/15 05:59:19;;;;;;;23.33;14.38;;;;;;;18.24;100.00;96928.63;5171851;27;20424;-52
2022/09/15 06:01:45;;;;;;;14.75;8.73;;;;;;;18.30;100.00;96779.75;5171359;27;20042;-58
2022/09/15 06:04:12;;;;;;;21.48;10.45;;;;;;;18.89;100.00;96690.25;5171569;27;20042;-56
2022/09/15 06:06:38;;;;;;;14.50;7.32;;;;;;;19.32;100.00;96628.75;5171413;27;20129;-55
2022/09/15 06:09:05;;;;;;;12.55;6.25;;;;;;;19.33;100.00;96563.63;5171293;27;20114;-56
2022/09/15 06:11:32;;;;;;;12.02;6.45;;;;;;;19.86;100.00;96559.69;5171244;27;20050;-53
2022/09/15 06:14:00;;;;;;;10.93;6.47;;;;;;;19.97;100.00;96557.03;5171477;27;20057;-54
2022/09/15 06:16:26;;;;;;;12.63;6.15;;;;;;;19.52;100.00;96562.06;5171918;27;20096;-59
2022/09/15 06:18:53;;;;;;;11.40;6.07;;;;;;;19.39;100.00;96554.13;5175096;27;20097;-54
2022/09/15 06:21:21;;;;;;;11.55;5.45;;;;;;;19.23;100.00;96566.56;5174721;27;20046;-57
2022/09/15 06:23:52;;;;;;;14.52;5.70;;;;;;;18.64;100.00;96568.72;5174633;27;20098;-51
2022/09/15 06:26:19;;;;;;;11.13;5.57;;;;;;;18.49;100.00;96613.13;5174788;27;20046;-54
2022/09/15 06:28:48;;;;;;;11.20;5.95;;;;;;;18.17;100.00;96632.28;5174828;27;20046;-55
2022/09/15 06:31:15;;;;;;;9.38;6.97;;;;;;;17.81;100.00;96794.88;5174921;27;20046;-52
2022/09/15 06:33:43;;;;;;;15.50;4.88;;;;;;;18.08;100.00;96696.13;5174960;27;20150;-55
2022/09/15 06:36:10;;;;;;;9.40;5.88;;;;;;;18.33;100.00;96606.09;5174729;27;20054;-64
2022/09/15 06:38:36;;;;;;;16.23;6.28;;;;;;;18.69;100.00;96571.56;5174619;27;20428;-62
2022/09/15 06:41:02;;;;;;;12.43;6.30;;;;;;;19.12;100.00;96558.06;5174974;27;20092;-62
2022/09/15 06:43:30;;;;;;;14.50;6.43;;;;;;;19.12;100.00;96549.72;5174754;27;20056;-59
2022/09/15 06:46:02;;;;;;;11.15;6.50;;;;;;;19.28;100.00;96563.06;5174572;27;20463;-59
2022/09/15 06:48:31;;;;;;;12.40;6.70;;;;;;;18.99;100.00;96552.09;5174295;27;20554;-56
2022/09/15 06:50:57;;;;;;;12.68;6.43;;;;;;;19.25;100.00;96554.94;5174569;27;20046;-57
2022/09/15 06:53:23;;;;;;;16.83;6.97;;;;;;;19.16;100.00;96543.97;5174253;27;20050;-56
2022/09/15 06:55:49;;;;;;;13.00;7.03;;;;;;;18.82;100.00;96554.63;5174523;27;20059;-57
2022/09/15 06:58:16;;;;;;;12.45;6.95;;;;;;;18.61;100.00;96548.25;5174178;27;20116;-56
2022/09/15 07:00:42;;;;;;;12.02;6.28;;;;;;;19.47;100.00;96546.88;5174202;27;20046;-58
2022/09/15 07:03:08;;;;;;;13.82;6.40;;;;;;;20.40;100.00;96571.06;5174014;27;20497;-54
2022/09/15 07:05:35;;;;;;;23.92;7.90;;;;;;;20.33;100.00;96593.75;5174500;27;20100;-58
2022/09/15 07:08:02;;;;;;;16.35;8.00;;;;;;;20.05;100.00;96569.22;5174190;27;20182;-57
2022/09/15 07:10:29;;;;;;;18.98;7.18;;;;;;;19.90;100.00;96577.69;5174095;27;20094;-58
2022/09/15 07:12:55;;;;;;;13.30;7.10;;;;;;;20.11;100.00;96572.06;5174098;27;20082;-59
2022/09/15 07:15:24;;;;;;;8.70;5.72;;;;;;;19.29;100.00;96591.59;5174173;27;20046;-59
2022/09/15 07:17:50;;;;;;;15.85;5.22;;;;;;;19.05;100.00;96556.47;5174249;27;20122;-58
2022/09/15 07:20:17;;;;;;;10.35;4.88;;;;;;;18.61;100.00;96553.03;5173858;27;20050;-56
2022/09/15 07:22:44;;;;;;;9.38;4.97;;;;;;;19.04;100.00;96545.84;5174190;27;20047;-57
2022/09/15 07:25:10;;;;;;;10.90;6.20;;;;;;;19.10;100.00;96554.25;5173736;27;20046;-57
2022/09/15 07:27:36;;;;;;;9.85;4.95;;;;;;;20.25;100.00;96564.84;5173042;27;20421;-58
2022/09/15 07:30:07;;;;;;;15.00;7.18;;;;;;;19.24;100.00;96556.19;5173649;27;20474;-57
2022/09/15 07:32:33;;;;;;;11.88;6.13;;;;;;;19.69;100.00;96568.63;5173720;27;20398;-57
2022/09/15 07:35:00;;;;;;;15.13;5.68;;;;;;;19.94;100.00;96552.44;5173538;27;20490;-57
2022/09/15 07:37:27;;;;;;;8.98;4.50;;;;;;;18.75;100.00;96549.50;5173464;27;20046;-53
2022/09/15 07:39:53;;;;;;;12.00;4.30;;;;;;;18.40;100.00;96550.22;5173582;27;20050;-60
2022/09/15 07:42:20;;;;;;;8.07;4.82;;;;;;;19.37;100.00;96559.38;5173500;27;20065;-59
2022/09/15 07:44:46;;;;;;;21.20;5.53;;;;;;;19.26;100.00;96551.69;5173726;27;20050;-57
2022/09/15 07:47:12;;;;;;;6.95;3.55;;;;;;;18.90;100.00;96555.78;5173376;27;20049;-59
2022/09/15 07:49:38;;;;;;;4.80;2.83;;;;;;;18.49;100.00;96547.34;5173503;27;20063;-57
2022/09/15 07:52:04;;;;;;;7.35;3.80;;;;;;;18.78;100.00;96548.53;5173619;27;20106;-57
2022/09/15 07:54:31;;;;;;;5.05;2.97;;;;;;;19.00;100.00;96559.19;5173670;27;20053;-57
2022/09/15 07:56:58;;;;;;;7.25;3.20;;;;;;;19.02;100.00;96551.13;5173178;27;20049;-55
2022/09/15 07:59:24;;;;;;;7.45;2.90;;;;;;;19.42;100.00;96574.59;5173307;27;20068;-58
2022/09/15 08:01:50;;;;;;;5.93;3.10;;;;;;;19.25;100.00;96577.16;5173056;27;20053;-58
2022/09/15 08:04:16;;;;;;;8.20;3.83;;;;;;;20.28;100.00;96561.84;5173101;27;20057;-56
2022/09/15 08:06:42;;;;;;;6.07;3.15;;;;;;;19.41;100.00;96575.84;5173089;27;20053;-58
2022/09/15 08:09:13;;;;;;;9.02;3.03;;;;;;;18.87;100.00;96575.41;5173247;27;20046;-57
2022/09/15 08:11:40;;;;;;;11.70;3.60;;;;;;;18.79;100.00;96575.81;5173410;27;20046;-58
2022/09/15 08:14:07;;;;;;;3.40;2.60;;;;;;;20.17;100.00;96609.03;5172902;27;20398;-58
2022/09/15 08:16:33;;;;;;;8.38;3.53;;;;;;;20.68;100.00;96644.41;5173199;27;20049;-56
2022/09/15 08:19:00;;;;;;;9.45;3.17;;;;;;;20.08;100.00;96581.38;5172896;27;20143;-59
2022/09/15 08:21:27;;;;;;;11.85;4.40;;;;;;;19.74;100.00;96603.28;5173133;27;20046;-58
2022/09/15 08:23:55;;;;;;;3.50;2.92;;;;;;;20.11;100.00;96611.00;5172695;27;20046;-57
2022/09/15 08:26:21;;;;;;;10.15;3.63;;;;;;;21.47;100.00;96642.19;5172900;27;20042;-57
2022/09/15 08:28:48;;;;;;;9.98;3.88;;;;;;;21.92;100.00;96717.66;5172815;27;20046;-58
2022/09/15 08:31:15;;;;;;;11.27;3.65;;;;;;;22.26;100.00;96717.81;5172710;27;20051;-62
2022/09/15 08:33:42;;;;;;;8.02;4.20;;;;;;;21.77;100.00;96736.59;5172683;27;20129;-59
2022/09/15 08:36:10;;;;;;;12.30;5.90;;;;;;;21.80;100.00;96691.00;5172628;27;20505;-61
2022/09/15 08:38:39;;;;;;;9.52;6.00;;;;;;;20.66;100.00;96699.06;5172677;27;20057;-58
2022/09/15 08:41:11;;;;;;;8.88;5.57;;;;;;;20.39;100.00;96584.22;5172411;27;20053;-57
2022/09/15 08:43:45;;;;;;;14.10;5.55;;;;;;;20.73;100.00;96598.41;5172880;27;20057;-60
2022/09/15 08:46:17;;;;;;;9.07;5.55;;;;;;;19.97;100.00;96582.06;5172452;27;20042;-58
2022/09/15 08:48:49;;;;;;;7.60;3.70;;;;;;;19.51;100.00;96552.97;5172591;27;20138;-57
2022/09/15 08:51:19;;;;;;;5.72;3.70;;;;;;;;;;5172469;27;20046;-54
2022/09/15 08:53:51;;;;;;;6.30;3.72;;;;;;;20.31;100.00;96554.53;5172387;27;20050;-56
2022/09/15 08:56:19;;;;;;;4.05;3.22;;;;;;;20.69;100.00;96561.66;5172557;27;20170;-58
2022/09/15 08:58:46;;;;;;;10.35;4.07;;;;;;;21.31;100.00;96606.59;5172379;27;20138;-58
2022/09/15 09:01:32;;;;;;;7.93;4.10;;;;;;;21.45;100.00;96635.56;5172298;27;20046;-58
2022/09/15 09:04:11;;;;;;;7.80;4.15;;;;;;;21.83;100.00;96648.16;5172311;27;20140;-57
2022/09/15 09:06:49;;;;;;;8.80;4.40;;;;;;;21.09;100.00;96633.06;5172806;27;20042;-58
2022/09/15 09:09:24;;;;;;;6.05;3.28;;;;;;;22.21;100.00;96679.50;5172142;27;20412;-57
2022/09/15 09:12:16;;;;;;;5.32;3.38;;;;;;;21.85;100.00;96698.59;5172237;27;20110;-56
2022/09/15 09:14:57;;;;;;;5.55;3.45;;;;;;;20.32;100.00;96711.84;5172414;27;20046;-57
2022/09/15 09:17:41;;;;;;;10.07;3.58;;;;;;;21.67;100.00;96736.03;5172163;27;20052;-56
2022/09/15 09:20:29;;;;;;;7.22;3.97;;;;;;;21.77;100.00;96697.56;5172321;27;20569;-57
2022/09/15 09:22:59;;;;;;;7.35;3.00;;;;;;;21.54;100.00;96742.06;5172135;27;20097;-56
2022/09/15 09:25:25;;;;;;;5.55;3.88;;;;;;;21.19;100.00;96686.56;5171924;27;20123;-56
2022/09/15 09:27:52;;;;;;;8.05;3.15;;;;;;;21.26;100.00;96637.97;5171965;27;20046;-57
2022/09/15 09:30:22;;;;;;;6.28;3.10;;;;;;;21.06;100.00;96633.28;5171909;27;20101;-53
2022/09/15 09:32:55;;;;;;;13.07;3.33;;;;;;;21.22;100.00;96666.06;5171914;27;20050;-57
2022/09/15 09:35:28;;;;;;;8.05;3.33;;;;;;;21.33;100.00;96696.81;5172020;27;20050;-54
2022/09/15 09:37:55;;;;;;;10.85;3.95;;;;;;;21.55;100.00;96698.97;5171808;27;20050;-56
2022/09/15 09:40:22;;;;;;;9.23;3.08;;;;;;;20.90;100.00;96704.34;5171750;27;20050;-56
2022/09/15 09:42:49;;;;;;;4.07;3.47;;;;;;;20.45;100.00;96635.09;5171777;27;20098;-54
2022/09/15 09:45:17;;;;;;;11.38;4.90;;;;;;;20.90;100.00;96640.28;5171724;27;20054;-56
2022/09/15 09:47:45;;;;;;;10.68;3.75;;;;;;;21.01;100.00;96639.59;5171677;27;20461;-54
2022/09/15 09:50:34;;;;;;;5.68;2.97;;;;;;;19.92;100.00;96627.22;5171713;27;20046;-54
2022/09/15 09:53:19;;;;;;;8.15;2.67;;;;;;;19.89;100.00;96633.75;5174790;27;20050;-57
2022/09/15 09:55:45;;;;;;;3.05;2.42;;;;;;;19.97;100.00;96649.53;5175473;27;20049;-55
2022/09/15 09:58:16;;;;;;;7.25;2.65;;;;;;;19.65;100.00;96606.97;5175066;27;20054;-57
2022/09/15 10:00:43;;;;;;;9.32;2.42;;;;;;;20.02;100.00;96616.72;5175023;27;20141;-57
2022/09/15 10:03:13;;;;;;;4.05;2.50;;;;;;;20.12;100.00;96618.09;5175113;27;20042;-56
2022/09/15 10:05:40;;;;;;;8.52;3.60;;;;;;;19.85;100.00;96567.25;5175169;27;20042;-55
2022/09/15 10:08:06;;;;;;;5.03;2.97;;;;;;;19.78;100.00;96570.47;5175148;27;20050;-54
2022/09/15 10:10:33;;;;;;;7.90;4.32;;;;;;;19.53;100.00;96549.72;5174938;27;20105;-56
2022/09/15 10:13:02;;;;;;;5.70;3.47;;;;;;;19.45;100.00;96546.59;5175181;27;20052;-56
2022/09/15 10:15:32;;;;;;;5.88;2.75;;;;;;;19.20;100.00;96548.09;5174911;27;20042;-57
2022/09/15 10:18:00;;;;;;;3.78;2.50;;;;;;;19.70;100.00;96574.94;5174941;27;20042;-56
2022/09/15 10:20:31;;;;;;;5.65;2.60;;;;;;;19.68;100.00;96591.34;5174713;27;20450;-56
2022/09/15 10:23:06;;;;;;;6.20;2.70;;;;;;;19.52;100.00;96589.84;5175038;27;20046;-56
2022/09/15 10:25:35;;;;;;;4.18;3.08;;;;;;;18.90;100.00;96577.22;5174616;27;20057;-56
2022/09/15 10:28:09;;;;;;;7.60;3.30;;;;;;;19.09;100.00;96575.69;5174621;27;20089;-55
2022/09/15 10:30:36;;;;;;;5.05;2.40;;;;;;;19.10;100.00;96613.34;5174886;27;20071;-55
2022/09/15 10:33:17;;;;;;;7.63;2.83;;;;;;;18.88;100.00;96655.41;5174818;27;20050;-56
2022/09/15 10:35:44;;;;;;;5.63;2.13;;;;;;;18.99;100.00;96621.50;5174894;27;20046;-56
2022/09/15 10:38:12;;;;;;;9.07;2.40;;;;;;;18.97;100.00;96621.97;5174496;27;20046;-57
2022/09/15 10:40:44;;;;;;;9.48;2.47;;;;;;;18.55;100.00;96625.09;5174929;27;20061;-57
2022/09/15 10:43:26;;;;;;;5.32;2.60;;;;;;;18.49;100.00;96566.75;5174348;27;20050;-57
2022/09/15 10:46:01;;;;;;;6.55;2.53;;;;;;;18.52;100.00;96589.97;5174420;27;20149;-57
2022/09/15 10:48:43;;;;;;;9.32;2.63;;;;;;;18.79;100.00;96586.13;5174314;27;20190;-53
2022/09/15 10:51:23;;;;;;;10.80;2.53;;;;;;;18.91;100.00;96582.28;5174557;27;20129;-57
2022/09/15 10:54:09;;;;;;;23.27;2.85;;;;;;;18.77;100.00;96577.53;5174491;27;20458;-56
2022/09/15 10:56:40;;;;;;;8.57;3.08;;;;;;;19.23;100.00;96601.91;5174155;27;20042;-55
2022/09/15 10:59:42;;;;;;;4.10;2.80;;;;;;;19.05;100.00;96583.47;5174597;27;20069;-53
2022/09/15 11:02:45;;;;;;;6.13;2.40;;;;;;;18.80;100.00;96637.63;5069270;28;20633;-56
2022/09/15 11:05:24;;;;;;;8.60;2.58;;;;;;;19.22;100.00;96600.34;5173374;27;20042;-53
2022/09/15 11:08:15;;;;;;;8.27;2.58;;;;;;;19.65;100.00;96583.97;5174427;27;20133;-57
2022/09/15 11:10:51;;;;;;;6.10;2.40;;;;;;;19.16;100.00;96602.28;5173861;27;20493;-57
2022/09/15 11:13:25;;;;;;;11.25;2.58;;;;;;;18.95;100.00;96596.72;5174052;27;20042;-57
2022/09/15 11:16:03;;;;;;;7.93;2.60;;;;;;;19.10;100.00;96579.25;5174052;27;20137;-53
2022/09/15 11:19:00;;;;;;;7.00;2.42;;;;;;;19.62;100.00;96607.16;5174101;27;20057;-56
2022/09/15 11:21:33;;;;;;;4.25;2.33;;;;;;;19.32;100.00;96604.53;5172709;27;20085;-55
2022/09/15 11:24:22;;;;;;;5.03;2.42;;;;;;;19.13;100.00;96562.38;5173626;27;20057;-56
2022/09/15 11:26:53;;;;;;;7.28;2.92;;;;;;;18.99;100.00;96588.19;5173997;27;20046;-53
2022/09/15 11:29:24;;;;;;;4.88;2.42;;;;;;;19.24;100.00;96606.19;5174076;27;20170;-56
2022/09/15 11:31:57;;;;;;;10.00;2.30;;;;;;;19.24;100.00;96611.75;5173966;27;20133;-56
2022/09/15 11:34:29;;;;;;;12.73;3.15;;;;;;;19.53;100.00;96585.84;5174022;27;20140;-54